Time;durP1;ratioP1;P1;durP2;ratioP2;P2;SDS_P1;SDS_P2;PMS_P1;PMS_P2;Temp;Humidity;BMP_temperature;BMP_pressure;BME280_temperature;BME280_humidity;BME280_pressure;Samples;Min_cycle;Max_cycle;Signal;HPM_P1;HPM_P2
2023/08/24 00:00:40;;;;;;;4.53;3.35;;;20.10;99.90;;;;;;4980372;28;20418;-91
2023/08/24 00:03:27;;;;;;;7.07;3.65;;;20.20;99.90;;;;;;4995818;28;20467;-93
2023/08/24 00:05:53;;;;;;;7.55;3.92;;;20.10;99.90;;;;;;5013661;28;20034;-93
2023/08/24 00:08:18;;;;;;;4.07;3.45;;;20.60;99.90;;;;;;4997548;28;20053;-91
2023/08/24 00:10:54;;;;;;;4.60;4.00;;;20.10;99.90;;;;;;5004909;28;20022;-93
2023/08/24 00:13:32;;;;;;;4.30;3.88;;;21.20;99.90;;;;;;5020456;23;20033;-92
2023/08/24 00:16:13;;;;;;;5.60;3.80;;;20.20;99.90;;;;;;5015399;28;20042;-92
2023/08/24 00:18:39;;;;;;;7.65;3.97;;;19.50;99.90;;;;;;5016019;28;20030;-91
2023/08/24 00:21:22;;;;;;;5.45;3.85;;;20.30;99.90;;;;;;5009176;28;20065;-93
2023/08/24 00:26:30;;;;;;;6.05;4.28;;;20.20;99.90;;;;;;5012794;23;20062;-93
2023/08/24 00:29:11;;;;;;;6.60;4.05;;;21.00;99.90;;;;;;4996118;28;20033;-92
2023/08/24 00:31:36;;;;;;;3.58;3.28;;;20.20;99.90;;;;;;4994709;28;20023;-92
2023/08/24 00:34:02;;;;;;;4.80;3.47;;;19.60;99.90;;;;;;4994736;28;20164;-92
2023/08/24 00:36:39;;;;;;;4.82;4.05;;;20.20;99.90;;;;;;4999785;23;20140;-92
2023/08/24 00:39:06;;;;;;;6.95;4.07;;;20.10;99.90;;;;;;5000057;23;20462;-91
2023/08/24 00:41:41;;;;;;;4.82;3.88;;;20.10;99.90;;;;;;4993325;28;20038;-92
2023/08/24 00:44:07;;;;;;;5.53;4.07;;;20.00;99.90;;;;;;4994037;28;20037;-91
2023/08/24 00:46:48;;;;;;;5.85;4.32;;;20.00;99.90;;;;;;4994846;28;20056;-90
2023/08/24 00:49:14;;;;;;;7.55;4.05;;;21.20;99.90;;;;;;4997718;28;20027;-90
2023/08/24 00:52:05;;;;;;;6.22;4.50;;;20.10;99.90;;;;;;5016723;23;20056;-91
2023/08/24 00:54:30;;;;;;;12.90;4.88;;;20.00;99.90;;;;;;4994573;28;20069;-90
2023/08/24 00:59:56;;;;;;;9.18;4.88;;;20.10;99.90;;;;;;4983165;23;20474;-91
2023/08/24 01:02:21;;;;;;;6.03;4.78;;;20.00;99.90;;;;;;4975107;28;20061;-94
2023/08/24 01:05:04;;;;;;;5.47;4.50;;;20.10;99.90;;;;;;4974662;28;20062;-93
2023/08/24 01:07:51;;;;;;;5.32;4.72;;;20.00;99.90;;;;;;4981371;23;20022;-92
2023/08/24 01:11:02;;;;;;;7.28;5.20;;;20.00;99.90;;;;;;4975004;28;20066;-93
2023/08/24 01:14:01;;;;;;;6.25;5.65;;;20.10;99.90;;;;;;4895547;29;20072;-92
2023/08/24 01:16:48;;;;;;;5.97;4.90;;;19.40;99.90;;;;;;4847730;29;20138;-92
2023/08/24 01:19:39;;;;;;;6.82;5.30;;;20.50;99.90;;;;;;4897220;29;20397;-92
2023/08/24 01:24:48;;;;;;;;;;;20.00;99.90;;;;;;4987339;23;20051;-92
2023/08/24 01:29:47;;;;;;;5.15;4.75;;;20.00;99.90;;;;;;5005170;23;20079;-91
2023/08/24 01:32:22;;;;;;;6.28;4.85;;;20.40;99.90;;;;;;4975087;28;20026;-93
2023/08/24 01:34:48;;;;;;;6.22;4.90;;;20.10;99.90;;;;;;4975559;28;20034;-92
2023/08/24 01:37:23;;;;;;;6.13;5.28;;;21.00;99.90;;;;;;4958199;28;20372;-89
2023/08/24 01:40:12;;;;;;;8.02;5.05;;;19.90;99.90;;;;;;4979057;28;20035;-92
2023/08/24 01:43:09;;;;;;;8.55;6.30;;;20.00;99.90;;;;;;4984511;28;20522;-91
2023/08/24 01:45:35;;;;;;;7.60;5.32;;;20.00;99.90;;;;;;4988715;28;20026;-92
2023/08/24 01:48:21;;;;;;;8.23;5.18;;;19.90;99.90;;;;;;4992092;28;20086;-91
2023/08/24 01:50:48;;;;;;;9.10;6.25;;;20.40;99.90;;;;;;4985849;28;20023;-92
2023/08/24 01:53:35;;;;;;;6.07;5.45;;;19.90;99.90;;;;;;4974312;28;20023;-91
2023/08/24 01:56:01;;;;;;;13.57;6.05;;;19.90;99.90;;;;;;4975094;28;20038;-91
2023/08/24 01:58:43;;;;;;;6.18;5.57;;;19.90;99.90;;;;;;4974179;28;20364;-92
2023/08/24 02:01:10;;;;;;;7.60;5.43;;;20.10;99.90;;;;;;4967069;28;20038;-91
2023/08/24 02:03:36;;;;;;;7.05;5.75;;;20.60;99.90;;;;;;4974679;28;20031;-93
2023/08/24 02:06:06;;;;;;;7.32;5.80;;;19.90;99.90;;;;;;4984214;23;20058;-92
2023/08/24 02:08:50;;;;;;;;;;;19.90;99.90;;;;;;4995662;28;20030;-92
2023/08/24 02:11:16;;;;;;;10.73;6.60;;;19.40;99.90;;;;;;4996149;28;19917;-92
2023/08/24 02:14:05;;;;;;;7.63;6.82;;;19.90;99.90;;;;;;4997741;28;20027;-91
2023/08/24 02:16:48;;;;;;;12.15;6.70;;;19.60;99.90;;;;;;5003548;23;20145;-92
2023/08/24 02:19:29;;;;;;;6.43;5.60;;;21.10;99.90;;;;;;5005804;28;20035;-90
2023/08/24 02:21:55;;;;;;;10.77;7.20;;;20.70;99.90;;;;;;5004470;28;19999;-90
2023/08/24 02:24:20;;;;;;;7.18;6.25;;;20.60;99.90;;;;;;5019273;28;20045;-90
2023/08/24 02:26:46;;;;;;;7.20;6.50;;;19.80;99.90;;;;;;5006284;28;20030;-91
2023/08/24 02:29:24;;;;;;;7.65;6.88;;;19.70;99.90;;;;;;4997116;28;20065;-93
2023/08/24 02:32:02;;;;;;;10.30;7.78;;;20.60;99.90;;;;;;4996640;28;20117;-92
2023/08/24 02:34:42;;;;;;;8.45;7.25;;;19.50;99.90;;;;;;4995485;28;20034;-92
2023/08/24 02:37:23;;;;;;;9.88;7.13;;;19.30;99.90;;;;;;4982657;28;20149;-92
2023/08/24 02:40:01;;;;;;;11.32;7.40;;;19.30;99.90;;;;;;4977101;28;20059;-92
2023/08/24 02:42:39;;;;;;;9.02;8.07;;;19.40;99.90;;;;;;4977305;28;20027;-91
2023/08/24 02:45:25;;;;;;;8.95;7.18;;;19.40;99.90;;;;;;4980166;28;20054;-91
2023/08/24 02:48:12;;;;;;;9.20;8.35;;;19.40;99.90;;;;;;4976948;28;20048;-91
2023/08/24 02:50:38;;;;;;;12.80;8.02;;;19.30;99.90;;;;;;4976813;28;20066;-91
2023/08/24 02:53:03;;;;;;;8.23;7.20;;;20.20;99.90;;;;;;4976838;28;20034;-91
2023/08/24 02:55:44;;;;;;;8.20;7.38;;;19.20;99.90;;;;;;4977016;28;20030;-91
2023/08/24 02:58:10;;;;;;;7.25;6.60;;;19.20;99.90;;;;;;4981134;28;20066;-92
2023/08/24 03:00:53;;;;;;;16.83;7.60;;;20.30;99.90;;;;;;4995781;28;20061;-91
2023/08/24 03:03:19;;;;;;;11.52;7.60;;;17.90;99.90;;;;;;4979576;28;20033;-92
2023/08/24 03:05:58;;;;;;;12.23;7.97;;;19.20;99.90;;;;;;5015555;23;20050;-91
2023/08/24 03:08:25;;;;;;;10.70;7.72;;;19.20;99.90;;;;;;4992152;28;20035;-92
2023/08/24 03:11:09;;;;;;;7.80;7.05;;;19.50;99.90;;;;;;5039834;23;20058;-91
2023/08/24 03:13:54;;;;;;;9.85;7.53;;;19.00;99.90;;;;;;4977278;28;20133;-90
2023/08/24 03:16:20;;;;;;;8.65;7.63;;;19.20;99.90;;;;;;4976686;28;20434;-90
2023/08/24 03:18:46;;;;;;;8.02;7.32;;;19.30;99.90;;;;;;5031729;23;20050;-90
2023/08/24 03:21:30;;;;;;;8.20;7.15;;;19.30;99.90;;;;;;4976697;28;20033;-92
2023/08/24 03:23:56;;;;;;;7.57;6.85;;;19.30;99.90;;;;;;4970106;23;20114;-94
2023/08/24 03:26:23;;;;;;;9.52;7.43;;;19.70;99.90;;;;;;4979323;28;20073;-92
2023/08/24 03:29:08;;;;;;;9.10;7.20;;;19.30;99.90;;;;;;4930743;29;20274;-91
2023/08/24 03:31:53;;;;;;;9.38;8.05;;;19.30;99.90;;;;;;4964940;28;20073;-92
2023/08/24 03:34:20;;;;;;;10.73;7.15;;;19.30;99.90;;;;;;4971440;28;20106;-92
2023/08/24 03:37:07;;;;;;;12.10;7.45;;;19.30;99.90;;;;;;4957220;29;20074;-91
2023/08/24 03:39:32;;;;;;;9.00;8.07;;;18.20;99.90;;;;;;4882787;29;20037;-92
2023/08/24 03:42:10;;;;;;;8.05;7.25;;;19.30;99.90;;;;;;4986899;23;20058;-91
2023/08/24 03:44:36;;;;;;;9.10;7.22;;;19.40;99.90;;;;;;4980328;28;20030;-93
2023/08/24 03:47:16;;;;;;;17.33;7.90;;;20.10;99.90;;;;;;4975683;28;20110;-90
2023/08/24 03:49:43;;;;;;;;;;;19.40;99.90;;;;;;5070471;23;20434;-90
2023/08/24 03:52:31;;;;;;;9.43;8.55;;;18.60;99.90;;;;;;4977361;28;19906;-88
2023/08/24 03:54:58;;;;;;;10.30;7.82;;;19.50;99.90;;;;;;4990429;28;20047;-92
2023/08/24 03:57:39;;;;;;;11.25;7.82;;;19.40;99.90;;;;;;4976213;28;20395;-92
2023/08/24 04:00:23;;;;;;;13.98;8.68;;;19.40;99.90;;;;;;4956183;29;20047;-90
2023/08/24 04:02:48;;;;;;;11.52;8.38;;;20.20;99.90;;;;;;4978015;23;20058;-91
2023/08/24 04:05:29;;;;;;;13.10;8.48;;;20.10;99.90;;;;;;4958921;28;20106;-93
2023/08/24 04:08:17;;;;;;;11.70;8.20;;;19.40;99.90;;;;;;4979063;23;20573;-92
2023/08/24 04:10:43;;;;;;;8.77;7.90;;;18.80;99.90;;;;;;4926416;28;20036;-91
2023/08/24 04:13:18;;;;;;;9.95;7.35;;;19.40;99.90;;;;;;4980752;28;20053;-91
2023/08/24 04:15:44;;;;;;;10.98;8.25;;;19.40;99.90;;;;;;4983653;23;20141;-91
2023/08/24 04:18:15;;;;;;;9.38;8.45;;;20.10;99.90;;;;;;4976420;28;20523;-90
2023/08/24 04:20:41;;;;;;;7.93;7.13;;;19.50;99.90;;;;;;4977962;28;20026;-93
2023/08/24 04:23:26;;;;;;;11.35;8.40;;;19.50;99.90;;;;;;4986783;28;20034;-91
2023/08/24 04:28:29;;;;;;;15.93;9.02;;;19.50;99.90;;;;;;5001771;23;20093;-92
2023/08/24 04:33:30;;;;;;;11.43;9.30;;;19.50;99.90;;;;;;5007339;23;20066;-92
2023/08/24 04:36:13;;;;;;;10.15;9.00;;;19.40;99.90;;;;;;4995350;28;20035;-92
2023/08/24 04:38:39;;;;;;;8.93;7.93;;;19.30;99.90;;;;;;4995915;28;20026;-92
2023/08/24 04:41:23;;;;;;;12.88;8.57;;;20.10;99.90;;;;;;5014928;23;20065;-92
2023/08/24 04:43:49;;;;;;;9.48;8.30;;;19.20;99.90;;;;;;4982314;23;20058;-93
2023/08/24 04:46:14;;;;;;;11.48;8.57;;;20.20;99.90;;;;;;4975816;28;20027;-94
2023/08/24 04:49:00;;;;;;;13.25;9.63;;;20.30;99.90;;;;;;4975040;28;20093;-91
2023/08/24 04:51:27;;;;;;;10.70;9.10;;;19.20;99.90;;;;;;4981988;23;20399;-93
2023/08/24 04:54:03;;;;;;;10.63;8.73;;;19.20;99.90;;;;;;4986553;28;20114;-92
2023/08/24 04:56:29;;;;;;;10.23;8.77;;;19.30;99.90;;;;;;4975950;28;20366;-92
2023/08/24 04:59:07;;;;;;;9.93;8.77;;;19.70;99.90;;;;;;4977466;28;20106;-94
2023/08/24 05:01:34;;;;;;;10.32;9.23;;;19.20;99.90;;;;;;4962337;28;20040;-92
2023/08/24 05:04:03;;;;;;;10.65;9.60;;;19.20;99.90;;;;;;4936250;29;20030;-92
2023/08/24 05:06:44;;;;;;;12.27;9.97;;;19.20;99.90;;;;;;4948121;28;20070;-92
2023/08/24 05:09:31;;;;;;;;;;;19.20;99.90;;;;;;4982666;23;20062;-92
2023/08/24 05:12:15;;;;;;;14.18;9.77;;;19.30;99.90;;;;;;4973903;28;19945;-92
2023/08/24 05:15:01;;;;;;;14.63;10.07;;;19.30;99.90;;;;;;4974659;28;20038;-91
2023/08/24 05:17:28;;;;;;;15.27;10.50;;;19.20;99.90;;;;;;4967070;28;20089;-91
2023/08/24 05:20:15;;;;;;;11.05;9.98;;;19.20;99.90;;;;;;4974755;28;20074;-91
2023/08/24 05:22:41;;;;;;;15.73;10.32;;;19.40;99.90;;;;;;4974736;28;20027;-91
2023/08/24 05:25:07;;;;;;;14.68;10.88;;;20.10;99.90;;;;;;4974080;28;20019;-86
2023/08/24 05:30:17;;;;;;;13.95;10.60;;;19.10;99.90;;;;;;4945751;29;20115;-93
2023/08/24 05:33:07;;;;;;;16.15;10.20;;;19.10;99.90;;;;;;4955421;28;20047;-93
2023/08/24 05:35:32;;;;;;;12.25;10.50;;;19.00;99.90;;;;;;4966800;28;20479;-91
2023/08/24 05:38:48;;;;;;;17.95;10.73;;;19.40;99.90;;;;;;4964745;28;20051;-92
2023/08/24 05:41:38;;;;;;;12.60;11.40;;;19.20;99.90;;;;;;4978746;23;20046;-89
2023/08/24 05:47:27;;;;;;;14.45;12.23;;;18.60;99.90;;;;;;4980372;23;20062;-91
2023/08/24 05:50:05;;;;;;;13.07;11.38;;;19.20;99.90;;;;;;4974170;28;20023;-90
2023/08/24 05:52:38;;;;;;;17.70;12.80;;;19.30;99.90;;;;;;4974144;28;20034;-89
2023/08/24 05:55:24;;;;;;;15.27;11.13;;;20.40;99.90;;;;;;4957827;28;20086;-91
2023/08/24 05:58:01;;;;;;;15.88;12.18;;;19.20;99.90;;;;;;4944862;29;20027;-92
2023/08/24 06:00:42;;;;;;;18.00;12.40;;;19.20;99.90;;;;;;4960266;29;20439;-92
2023/08/24 06:03:22;;;;;;;16.17;12.23;;;19.30;99.90;;;;;;4957828;29;20023;-92
2023/08/24 06:05:48;;;;;;;;;;;19.20;99.90;;;;;;4940440;29;20408;-92
2023/08/24 06:08:13;;;;;;;13.95;11.98;;;19.30;99.90;;;;;;4939094;29;20099;-90
2023/08/24 06:10:48;;;;;;;17.25;12.85;;;20.40;99.90;;;;;;4944551;29;20039;-93
2023/08/24 06:13:14;;;;;;;18.17;12.43;;;19.30;99.90;;;;;;4958049;29;20031;-91
2023/08/24 06:16:00;;;;;;;14.35;12.85;;;19.40;99.90;;;;;;4943896;29;20038;-89
2023/08/24 06:18:26;;;;;;;16.88;12.73;;;19.70;99.90;;;;;;4941491;29;20042;-95
2023/08/24 06:20:51;;;;;;;15.77;13.95;;;20.00;99.90;;;;;;4945597;29;20440;-93
2023/08/24 06:23:36;;;;;;;21.33;13.13;;;20.60;99.90;;;;;;4941784;29;20499;-93
2023/08/24 06:26:01;;;;;;;17.55;13.25;;;20.30;99.90;;;;;;4939109;29;20095;-91
2023/08/24 06:28:27;;;;;;;16.42;14.13;;;20.60;99.90;;;;;;4942549;29;20472;-91
2023/08/24 06:31:14;;;;;;;16.50;13.60;;;19.80;99.90;;;;;;4960097;29;20064;-89
2023/08/24 06:33:55;;;;;;;17.80;14.07;;;19.10;99.90;;;;;;4959762;29;20067;-90
2023/08/24 06:36:20;;;;;;;16.80;13.43;;;19.60;99.90;;;;;;4956684;29;20039;-91
2023/08/24 06:39:08;;;;;;;18.25;14.25;;;19.60;99.90;;;;;;4943007;29;20039;-90
2023/08/24 06:41:46;;;;;;;21.60;14.73;;;19.60;99.90;;;;;;4952611;29;20087;-92
2023/08/24 06:44:36;;;;;;;17.38;14.52;;;19.70;99.90;;;;;;4961025;29;20023;-91
2023/08/24 06:47:02;;;;;;;25.13;13.52;;;19.70;99.90;;;;;;4956623;29;20059;-88
2023/08/24 06:49:37;;;;;;;16.02;13.45;;;19.80;99.90;;;;;;4951234;29;20047;-89
2023/08/24 07:01:05;;;;;;;19.05;14.25;;;19.80;99.90;;;;;;5002516;28;20046;-88
2023/08/24 07:06:12;;;;;;;19.50;13.00;;;19.90;99.90;;;;;;5132221;23;20061;-90
2023/08/24 07:11:29;;;;;;;16.15;14.43;;;20.00;99.90;;;;;;4974921;23;20058;-90
2023/08/24 07:14:06;;;;;;;15.70;13.43;;;19.90;99.90;;;;;;4958325;28;20431;-86
2023/08/24 07:16:35;;;;;;;21.83;13.95;;;20.00;99.90;;;;;;4975037;28;20034;-88
2023/08/24 07:19:29;;;;;;;16.90;14.13;;;20.00;99.90;;;;;;4982895;23;20153;-90
2023/08/24 07:25:08;;;;;;;22.30;13.93;;;20.10;99.90;;;;;;4984840;28;20034;-89
2023/08/24 07:27:58;;;;;;;16.80;14.50;;;20.20;99.90;;;;;;4994660;28;20189;-86
2023/08/24 07:30:27;;;;;;;20.30;14.43;;;20.20;99.90;;;;;;4978336;28;20086;-87
2023/08/24 07:32:53;;;;;;;15.88;13.93;;;20.30;99.90;;;;;;4992047;28;20026;-86
2023/08/24 07:35:20;;;;;;;17.98;13.52;;;20.40;99.90;;;;;;4994532;28;20038;-85
2023/08/24 07:37:49;;;;;;;17.63;13.73;;;20.40;99.90;;;;;;4993364;28;20121;-89
2023/08/24 07:40:15;;;;;;;21.13;14.35;;;20.40;99.90;;;;;;4993796;28;20058;-87
2023/08/24 07:42:56;;;;;;;16.27;13.23;;;20.40;99.90;;;;;;4990675;28;20038;-86
2023/08/24 07:45:47;;;;;;;18.63;14.15;;;20.50;99.90;;;;;;4987325;28;20062;-91
2023/08/24 07:48:12;;;;;;;14.18;12.77;;;20.50;99.90;;;;;;4988035;28;20029;-88
2023/08/24 07:50:59;;;;;;;19.98;14.23;;;19.90;99.90;;;;;;4980276;28;20037;-87
2023/08/24 07:53:25;;;;;;;16.23;11.60;;;20.40;99.90;;;;;;4973511;28;20049;-87
2023/08/24 07:55:50;;;;;;;19.55;13.30;;;20.70;99.90;;;;;;4978588;28;20462;-85
2023/08/24 07:58:16;;;;;;;16.40;13.95;;;20.80;99.90;;;;;;4984613;28;20035;-84
2023/08/24 08:16:32;;;;;;;21.27;15.52;;;21.10;99.90;;;;;;5010237;28;20534;-88
2023/08/24 08:19:25;;;;;;;15.93;13.80;;;21.10;99.90;;;;;;5039062;23;20085;-88
2023/08/24 08:21:51;;;;;;;19.17;14.95;;;21.20;99.90;;;;;;4970249;28;20386;-86
2023/08/24 08:24:34;;;;;;;17.13;14.15;;;21.20;99.90;;;;;;4994255;28;20023;-91
2023/08/24 08:27:00;;;;;;;18.58;15.75;;;21.20;99.90;;;;;;4974860;28;20038;-89
2023/08/24 08:29:25;;;;;;;18.85;14.80;;;21.30;99.90;;;;;;4974096;28;20019;-88
2023/08/24 08:31:51;;;;;;;16.75;15.13;;;21.30;99.90;;;;;;4982020;28;20062;-88
2023/08/24 08:34:16;;;;;;;16.90;15.07;;;21.30;99.90;;;;;;4999900;28;20043;-88
2023/08/24 08:36:42;;;;;;;18.73;16.25;;;21.40;99.90;;;;;;4993621;28;20043;-87
2023/08/24 08:39:08;;;;;;;19.17;16.83;;;21.40;99.90;;;;;;4993061;28;20051;-90
2023/08/24 08:41:42;;;;;;;17.08;15.40;;;21.40;99.90;;;;;;4980366;28;20122;-90
2023/08/24 08:44:14;;;;;;;21.35;15.40;;;21.50;99.90;;;;;;4985700;28;20027;-89
2023/08/24 08:46:41;;;;;;;18.20;15.07;;;22.20;99.90;;;;;;4986424;28;20023;-89
2023/08/24 08:49:08;;;;;;;21.45;18.25;;;21.50;99.90;;;;;;4991078;28;20022;-88
2023/08/24 08:51:35;;;;;;;22.42;16.95;;;21.60;99.90;;;;;;4977230;28;20054;-89
2023/08/24 08:54:02;;;;;;;21.02;16.52;;;21.70;99.90;;;;;;4990060;28;20018;-89
2023/08/24 08:56:29;;;;;;;20.10;16.50;;;21.60;99.90;;;;;;4994217;28;20042;-88
2023/08/24 08:58:56;;;;;;;18.48;16.60;;;21.60;99.90;;;;;;4994655;28;20026;-89
2023/08/24 09:01:28;;;;;;;18.45;16.35;;;21.70;99.90;;;;;;4997429;28;20517;-86
2023/08/24 09:03:54;;;;;;;23.25;18.50;;;21.80;99.90;;;;;;4995273;28;20426;-88
2023/08/24 09:06:21;;;;;;;19.13;17.13;;;21.50;99.90;;;;;;4979809;28;20038;-88
2023/08/24 09:08:47;;;;;;;18.70;16.80;;;21.80;99.90;;;;;;4983212;28;20026;-88
2023/08/24 09:11:14;;;;;;;23.98;17.33;;;21.80;99.90;;;;;;4973784;28;20027;-89
2023/08/24 09:13:40;;;;;;;22.08;17.17;;;21.70;99.90;;;;;;4973823;28;20034;-88
2023/08/24 09:16:06;;;;;;;21.05;16.00;;;22.00;99.90;;;;;;4985511;28;20038;-88
2023/08/24 09:18:39;;;;;;;25.13;17.10;;;21.90;99.90;;;;;;4978554;28;20053;-88
2023/08/24 09:21:09;;;;;;;20.83;17.33;;;21.90;99.90;;;;;;4975432;28;20027;-89
2023/08/24 09:23:35;;;;;;;22.13;15.95;;;22.00;99.90;;;;;;4992414;28;20069;-89
2023/08/24 09:26:01;;;;;;;18.85;16.48;;;22.00;99.90;;;;;;4993469;28;20426;-90
2023/08/24 09:28:26;;;;;;;22.45;16.10;;;22.00;99.90;;;;;;4993659;28;20395;-89
2023/08/24 09:30:55;;;;;;;18.95;15.25;;;22.10;99.90;;;;;;4993038;28;20117;-89
2023/08/24 09:33:25;;;;;;;17.70;15.00;;;22.10;99.90;;;;;;4997372;28;20022;-89
2023/08/24 09:36:01;;;;;;;18.77;15.55;;;22.20;99.90;;;;;;4996959;28;20043;-89
2023/08/24 09:38:27;;;;;;;19.13;14.68;;;22.30;99.90;;;;;;4996828;28;20035;-90
2023/08/24 09:40:54;;;;;;;16.92;15.00;;;22.10;99.90;;;;;;4996486;28;20023;-89
2023/08/24 09:43:21;;;;;;;19.77;15.32;;;22.20;99.90;;;;;;4983781;28;20121;-90
2023/08/24 09:45:54;;;;;;;16.70;14.43;;;22.20;99.90;;;;;;4977547;28;20027;-89
2023/08/24 09:48:21;;;;;;;16.88;14.30;;;22.30;99.90;;;;;;4996042;28;20034;-90
2023/08/24 09:50:48;;;;;;;18.20;14.25;;;22.20;99.90;;;;;;4992417;28;20038;-89
2023/08/24 09:53:18;;;;;;;16.10;14.43;;;22.20;99.90;;;;;;4987680;28;20023;-90
2023/08/24 09:55:54;;;;;;;18.55;14.27;;;22.20;99.90;;;;;;4976986;28;20039;-89
2023/08/24 09:58:20;;;;;;;15.50;13.80;;;22.20;99.90;;;;;;4985159;28;20027;-89
2023/08/24 10:00:48;;;;;;;17.05;13.98;;;22.20;99.90;;;;;;4996061;28;20030;-90
2023/08/24 10:03:21;;;;;;;15.63;14.02;;;22.20;99.90;;;;;;4996479;28;20386;-90
2023/08/24 10:06:00;;;;;;;16.92;14.48;;;22.20;99.90;;;;;;4992521;28;20128;-90
2023/08/24 10:08:50;;;;;;;16.63;14.48;;;22.20;99.90;;;;;;4987246;28;20019;-87
2023/08/24 10:11:22;;;;;;;20.00;14.57;;;22.20;99.90;;;;;;4976846;28;20073;-89
2023/08/24 10:13:59;;;;;;;16.67;13.82;;;22.20;99.90;;;;;;4976576;28;20069;-89
2023/08/24 10:16:30;;;;;;;14.52;12.88;;;22.20;99.90;;;;;;4976988;28;20518;-90
2023/08/24 10:18:57;;;;;;;16.25;14.27;;;22.20;99.90;;;;;;4977285;28;20055;-90
2023/08/24 10:21:26;;;;;;;16.80;14.23;;;22.20;99.90;;;;;;4976638;28;20034;-90
2023/08/24 10:23:56;;;;;;;18.02;14.80;;;22.20;99.90;;;;;;4991606;28;20018;-89
2023/08/24 10:26:23;;;;;;;18.00;15.30;;;22.20;99.90;;;;;;4997862;28;20042;-89
2023/08/24 10:28:53;;;;;;;19.88;16.40;;;22.20;99.90;;;;;;4995717;28;20273;-90
2023/08/24 10:31:20;;;;;;;24.92;17.98;;;22.30;99.90;;;;;;4997231;28;20038;-89
2023/08/24 10:33:48;;;;;;;21.15;18.02;;;22.20;99.90;;;;;;5003169;28;20034;-89
2023/08/24 10:36:14;;;;;;;23.48;17.75;;;22.20;99.90;;;;;;5000803;28;20129;-89
2023/08/24 10:38:44;;;;;;;23.77;18.52;;;22.30;99.90;;;;;;5014882;28;20015;-89
2023/08/24 10:41:13;;;;;;;21.90;19.10;;;22.20;99.90;;;;;;5015007;28;20074;-89
2023/08/24 10:44:10;;;;;;;21.90;19.57;;;22.20;99.90;;;;;;5000472;28;20037;-88
2023/08/24 10:46:38;;;;;;;24.92;18.45;;;22.30;99.90;;;;;;4999873;28;20037;-89
2023/08/24 10:49:04;;;;;;;21.25;19.02;;;22.70;99.90;;;;;;4995635;28;20418;-87
2023/08/24 10:51:31;;;;;;;23.58;20.95;;;22.30;99.90;;;;;;4976404;28;20521;-90
2023/08/24 10:54:10;;;;;;;22.90;19.35;;;23.10;99.90;;;;;;4976077;28;20085;-90
2023/08/24 10:56:38;;;;;;;22.33;19.00;;;22.40;99.90;;;;;;4975557;28;20458;-89
2023/08/24 10:59:34;;;;;;;22.50;20.08;;;22.40;99.90;;;;;;4977847;28;20026;-89
2023/08/24 11:02:01;;;;;;;22.75;19.25;;;22.40;99.90;;;;;;4995688;28;20026;-89
2023/08/24 11:04:29;;;;;;;21.02;18.88;;;22.40;99.90;;;;;;4996679;28;20059;-89
2023/08/24 11:07:01;;;;;;;21.30;19.00;;;23.10;99.90;;;;;;5000813;28;20023;-86
2023/08/24 11:09:47;;;;;;;21.55;18.77;;;22.40;99.90;;;;;;4995041;28;20034;-89
2023/08/24 11:12:13;;;;;;;27.10;19.80;;;22.50;99.90;;;;;;4995565;28;20040;-89
2023/08/24 11:15:01;;;;;;;21.38;19.17;;;23.00;99.90;;;;;;4978490;28;20039;-90
2023/08/24 11:17:33;;;;;;;25.55;18.77;;;22.50;99.90;;;;;;4975217;28;20439;-89
2023/08/24 11:20:15;;;;;;;29.42;20.88;;;22.50;99.90;;;;;;4976481;28;20046;-89
2023/08/24 11:22:40;;;;;;;21.92;19.60;;;22.50;99.90;;;;;;4983457;28;20482;-89
2023/08/24 11:25:28;;;;;;;25.27;19.63;;;22.50;99.90;;;;;;4995882;28;20030;-89
2023/08/24 11:28:00;;;;;;;24.95;19.85;;;23.00;99.90;;;;;;4994629;28;20057;-89
2023/08/24 11:30:25;;;;;;;23.17;19.75;;;22.60;99.90;;;;;;4994778;28;20077;-89
2023/08/24 11:32:54;;;;;;;21.33;17.85;;;22.60;99.90;;;;;;4994832;28;20027;-88
2023/08/24 11:35:21;;;;;;;21.52;18.90;;;22.60;99.90;;;;;;4995880;28;20065;-89
2023/08/24 11:37:59;;;;;;;34.90;19.45;;;22.70;99.90;;;;;;4994683;28;20050;-89
2023/08/24 11:40:26;;;;;;;24.40;18.55;;;22.70;99.90;;;;;;4987685;28;20031;-89
2023/08/24 11:42:58;;;;;;;21.20;16.75;;;22.70;99.90;;;;;;4994873;28;20035;-89
2023/08/24 11:45:36;;;;;;;18.63;16.00;;;22.70;99.90;;;;;;4975273;28;20031;-89
2023/08/24 11:48:04;;;;;;;22.02;15.95;;;22.80;99.90;;;;;;4984462;28;20030;-88
2023/08/24 11:50:45;;;;;;;18.77;16.70;;;22.80;99.90;;;;;;4986902;28;20074;-89
2023/08/24 11:53:10;;;;;;;23.40;16.60;;;22.80;99.90;;;;;;4983779;28;20030;-88
2023/08/24 11:55:39;;;;;;;19.17;16.10;;;22.90;99.90;;;;;;4975890;28;20344;-90
2023/08/24 11:58:23;;;;;;;21.35;17.60;;;23.00;99.90;;;;;;4975863;28;20026;-89
2023/08/24 12:00:49;;;;;;;20.85;16.27;;;23.00;99.90;;;;;;4976729;28;20065;-90
2023/08/24 12:03:15;;;;;;;31.33;15.93;;;23.10;99.90;;;;;;4980101;28;20023;-88
2023/08/24 12:06:09;;;;;;;17.30;14.38;;;23.10;99.90;;;;;;4975650;28;20479;-88
2023/08/24 12:08:52;;;;;;;19.13;16.73;;;23.10;99.90;;;;;;4975808;28;20034;-88
2023/08/24 12:11:20;;;;;;;19.10;15.30;;;23.00;99.90;;;;;;4975692;28;20450;-88
2023/08/24 12:13:48;;;;;;;17.33;15.45;;;23.10;99.90;;;;;;4984881;28;20026;-88
2023/08/24 12:16:16;;;;;;;16.13;14.43;;;23.10;99.90;;;;;;4974806;28;20054;-88
2023/08/24 12:18:56;;;;;;;17.60;15.82;;;23.10;99.90;;;;;;4981823;23;20046;-88
2023/08/24 12:21:23;;;;;;;22.48;16.23;;;23.10;99.90;;;;;;4970458;28;20030;-89
2023/08/24 12:24:05;;;;;;;19.88;17.40;;;23.20;99.90;;;;;;4977117;28;20506;-89
2023/08/24 12:26:32;;;;;;;20.38;17.10;;;23.20;99.90;;;;;;4962682;28;20058;-89
2023/08/24 12:29:13;;;;;;;19.90;16.48;;;23.20;99.90;;;;;;4905044;29;20122;-89
2023/08/24 12:31:43;;;;;;;20.58;18.48;;;23.30;99.90;;;;;;4957174;29;20027;-89
2023/08/24 12:34:17;;;;;;;19.65;17.65;;;23.30;99.90;;;;;;4957137;29;20027;-90
2023/08/24 12:36:45;;;;;;;21.00;17.85;;;23.30;99.90;;;;;;4955600;29;20043;-89
2023/08/24 12:39:15;;;;;;;19.70;17.67;;;23.40;99.90;;;;;;4956796;29;20311;-89
2023/08/24 12:42:00;;;;;;;17.65;15.60;;;23.40;99.90;;;;;;4974545;29;20089;-88
2023/08/24 12:44:25;;;;;;;20.85;17.48;;;23.50;99.90;;;;;;4986751;28;20018;-89
2023/08/24 12:46:51;;;;;;;22.73;17.42;;;23.50;99.90;;;;;;4993782;28;20057;-89
2023/08/24 12:49:35;;;;;;;19.60;16.65;;;24.40;99.90;;;;;;4972025;28;20030;-88
2023/08/24 12:52:02;;;;;;;18.05;15.18;;;23.50;99.90;;;;;;4963409;29;20039;-85
2023/08/24 12:54:28;;;;;;;17.23;14.50;;;23.60;99.90;;;;;;4958411;28;20036;-90
2023/08/24 12:57:00;;;;;;;17.80;15.90;;;23.60;99.90;;;;;;4945175;29;20126;-87
2023/08/24 12:59:26;;;;;;;22.30;16.13;;;23.60;99.90;;;;;;4957565;28;20407;-87
2023/08/24 13:01:51;;;;;;;21.13;16.88;;;23.70;99.90;;;;;;4972405;28;20039;-85
2023/08/24 13:04:17;;;;;;;18.80;15.50;;;23.70;99.90;;;;;;4973643;28;20027;-86
2023/08/24 13:06:46;;;;;;;18.98;17.02;;;23.70;99.90;;;;;;4966315;28;20371;-89
2023/08/24 13:09:22;;;;;;;20.73;16.55;;;23.80;99.90;;;;;;4954351;29;20031;-88
2023/08/24 13:11:51;;;;;;;18.50;15.60;;;23.80;99.90;;;;;;4956096;28;20042;-88
2023/08/24 13:14:29;;;;;;;18.30;16.42;;;23.80;99.90;;;;;;4972184;28;20082;-90
2023/08/24 13:16:55;;;;;;;18.88;15.73;;;23.80;99.90;;;;;;4971208;28;20106;-88
2023/08/24 13:19:20;;;;;;;19.80;17.63;;;23.90;99.90;;;;;;4970997;28;20043;-88
2023/08/24 13:21:46;;;;;;;19.40;17.30;;;23.90;99.90;;;;;;4954358;28;20491;-88
2023/08/24 13:24:12;;;;;;;24.48;16.88;;;23.90;99.90;;;;;;4953641;29;20031;-88
2023/08/24 13:26:37;;;;;;;17.35;14.50;;;24.00;99.90;;;;;;4948468;29;20036;-88
2023/08/24 13:29:03;;;;;;;17.73;15.93;;;24.50;99.90;;;;;;4968566;28;20537;-88
2023/08/24 13:31:30;;;;;;;18.98;14.90;;;24.00;99.90;;;;;;4953313;29;20533;-87
2023/08/24 13:33:55;;;;;;;17.40;14.77;;;24.70;99.90;;;;;;4954280;29;20035;-85
2023/08/24 13:36:30;;;;;;;18.90;15.02;;;24.10;99.90;;;;;;4954471;29;20085;-88
2023/08/24 13:38:55;;;;;;;16.15;14.45;;;24.40;99.90;;;;;;4953656;29;20034;-87
2023/08/24 13:41:21;;;;;;;18.63;15.90;;;24.10;99.90;;;;;;4970652;28;20026;-88
2023/08/24 13:43:46;;;;;;;17.63;15.68;;;24.10;99.90;;;;;;4972841;28;20029;-87
2023/08/24 13:46:30;;;;;;;20.00;16.10;;;24.10;99.90;;;;;;4972461;28;20058;-88
2023/08/24 13:48:56;;;;;;;19.83;17.23;;;24.10;99.90;;;;;;4962555;28;20027;-87
2023/08/24 13:51:21;;;;;;;22.48;14.93;;;24.10;99.90;;;;;;4971989;28;20394;-87
2023/08/24 13:53:47;;;;;;;16.25;14.10;;;24.10;99.90;;;;;;4973887;28;20492;-86
2023/08/24 13:56:13;;;;;;;17.00;13.10;;;24.10;99.90;;;;;;4970183;28;20047;-87
2023/08/24 13:58:38;;;;;;;15.77;14.15;;;24.40;99.90;;;;;;4956971;29;20029;-87
2023/08/24 14:01:04;;;;;;;16.98;14.85;;;24.00;99.90;;;;;;4955096;29;20141;-87